Terminal Aerodrome Forecast
Issued by NWS

Home | Current Version | Previous Version | Text Only | Print | Product List | Glossary On
Versions: 1 2 3 4 5 6 7 8 9 10 11 12 13
036
FTUS43 KICT 210520
TAFHUT
TAF
KHUT 210520Z 2106/2206 19011KT P6SM BKN250
     FM210800 27007KT P6SM BKN250
     FM211100 32007KT P6SM BKN150
     FM211300 36011KT P6SM BKN120
     FM211700 01017G25KT P6SM SCT200
     FM220400 02005KT P6SM SKC=

USA.gov is the U.S. government's official web portal to all federal, state and local government web resources and services.